createdAt,value
2023-01-17T00:01:33.900Z,5.78
2023-01-17T00:04:20.417Z,1.63
2023-01-17T00:07:05.444Z,2.20
2023-01-17T00:09:51.103Z,2.85
2023-01-17T00:12:17.891Z,2.72
2023-01-17T00:14:44.651Z,3.15
2023-01-17T00:17:11.272Z,2.78
2023-01-17T00:19:56.511Z,2.25
2023-01-17T00:22:47.277Z,2.20
2023-01-17T00:25:35.192Z,3.60
2023-01-17T00:28:03.848Z,3.25
2023-01-17T00:30:30.923Z,5.80
2023-01-17T00:35:25.843Z,2.80
2023-01-17T00:38:10.413Z,4.05
2023-01-17T00:40:39.157Z,2.22
2023-01-17T00:43:25.600Z,3.20
2023-01-17T00:46:10.908Z,1.83
2023-01-17T00:48:56.482Z,1.85
2023-01-17T00:51:42.869Z,2.25
2023-01-17T00:54:28.832Z,2.67
2023-01-17T00:57:14.800Z,1.63
2023-01-17T01:00:00.378Z,1.90
2023-01-17T01:02:46.058Z,2.45
2023-01-17T01:05:31.901Z,2.00
2023-01-17T01:08:17.277Z,2.97
2023-01-17T01:11:03.707Z,1.65
2023-01-17T01:13:50.418Z,4.00
2023-01-17T01:16:36.782Z,3.78
2023-01-17T01:19:23.619Z,2.15
2023-01-17T01:22:08.541Z,2.88
2023-01-17T01:24:53.505Z,2.25
2023-01-17T01:27:38.359Z,2.00
2023-01-17T01:30:23.707Z,3.75
2023-01-17T01:33:08.853Z,3.22
2023-01-17T01:35:36.785Z,2.20
2023-01-17T01:38:03.847Z,1.92
2023-01-17T01:45:30.691Z,5.38
2023-01-17T01:48:23.470Z,2.15
2023-01-17T01:50:51.033Z,1.88
2023-01-17T01:53:20.754Z,1.67
2023-01-17T01:55:49.689Z,1.85
2023-01-17T01:58:24.956Z,3.13
2023-01-17T02:00:51.794Z,2.08
2023-01-17T02:03:24.242Z,2.45
2023-01-17T02:05:52.061Z,2.30
2023-01-17T02:08:22.748Z,2.00
2023-01-17T02:10:50.680Z,2.42
2023-01-17T02:13:20.698Z,2.00
2023-01-17T02:16:06.861Z,2.70
2023-01-17T02:19:11.935Z,2.00
2023-01-17T02:21:54.559Z,3.30
2023-01-17T02:24:30.075Z,2.00
2023-01-17T02:27:01.594Z,1.92
2023-01-17T02:29:58.958Z,2.03
2023-01-17T02:32:40.772Z,1.38
2023-01-17T02:35:29.772Z,2.50
2023-01-17T02:38:28.285Z,3.03
2023-01-17T02:41:03.091Z,3.00
2023-01-17T02:43:30.068Z,1.70
2023-01-17T02:45:56.574Z,2.50
2023-01-17T02:48:26.610Z,2.08
2023-01-17T02:51:22.558Z,3.35
2023-01-17T02:53:55.123Z,3.72
2023-01-17T02:56:34.403Z,1.77
2023-01-17T02:59:20.982Z,1.75
2023-01-17T03:01:56.523Z,3.13
2023-01-17T03:04:51.186Z,3.53
2023-01-17T03:07:23.632Z,2.00
2023-01-17T03:09:56.161Z,2.88
2023-01-17T03:12:22.674Z,2.05
2023-01-17T03:14:49.277Z,2.53
2023-01-17T03:17:16.389Z,3.63
2023-01-17T03:19:43.252Z,2.13
2023-01-17T03:22:09.949Z,3.55
2023-01-17T03:24:36.420Z,3.55
2023-01-17T03:27:02.897Z,3.20
2023-01-17T03:29:29.718Z,2.90
2023-01-17T03:31:56.257Z,3.28
2023-01-17T03:34:22.926Z,2.97
2023-01-17T03:36:49.745Z,3.13
2023-01-17T03:39:16.278Z,3.13
2023-01-17T03:41:42.792Z,4.25
2023-01-17T03:44:09.488Z,3.72
2023-01-17T03:46:36.728Z,3.47
2023-01-17T03:51:29.841Z,2.80
2023-01-17T03:53:56.543Z,2.63
2023-01-17T03:56:23.060Z,2.85
2023-01-17T03:58:49.712Z,4.43
2023-01-17T04:01:16.326Z,3.40
2023-01-17T04:03:42.925Z,2.95
2023-01-17T04:06:09.678Z,3.75
2023-01-17T04:08:36.440Z,3.97
2023-01-17T04:11:03.077Z,3.63
2023-01-17T04:13:29.792Z,3.40
2023-01-17T04:15:56.374Z,4.20
2023-01-17T04:18:24.213Z,4.78
2023-01-17T04:20:51.487Z,4.82
2023-01-17T04:23:18.436Z,4.80
2023-01-17T04:25:45.068Z,5.00
2023-01-17T04:28:12.403Z,5.65
2023-01-17T04:30:38.878Z,7.18
2023-01-17T04:33:05.903Z,9.52
2023-01-17T04:38:00.533Z,7.68
2023-01-17T04:42:54.555Z,5.88
2023-01-17T04:45:21.596Z,5.93
2023-01-17T04:47:48.025Z,8.43
2023-01-17T04:50:14.883Z,8.25
2023-01-17T04:52:41.385Z,8.20
2023-01-17T04:55:08.322Z,6.90
2023-01-17T04:57:35.039Z,8.90
2023-01-17T05:00:01.716Z,8.00
2023-01-17T05:02:28.258Z,8.63
2023-01-17T05:04:54.762Z,8.93
2023-01-17T05:07:21.353Z,8.05
2023-01-17T05:09:47.964Z,8.55
2023-01-17T05:12:14.832Z,7.45
2023-01-17T05:14:41.433Z,6.53
2023-01-17T05:17:07.995Z,5.63
2023-01-17T05:19:36.899Z,5.72
2023-01-17T05:22:04.011Z,4.25
2023-01-17T05:24:33.403Z,5.32
2023-01-17T05:27:03.171Z,3.20
2023-01-17T05:29:30.738Z,3.20
2023-01-17T05:31:57.466Z,2.25
2023-01-17T05:34:24.271Z,2.22
2023-01-17T05:36:51.252Z,1.55
2023-01-17T05:39:18.417Z,1.95
2023-01-17T05:41:44.971Z,1.70
2023-01-17T05:44:11.552Z,1.65
2023-01-17T05:46:38.111Z,1.40
2023-01-17T05:49:04.877Z,1.60
2023-01-17T05:51:31.439Z,1.52
2023-01-17T05:53:58.003Z,1.50
2023-01-17T05:56:24.817Z,1.50
2023-01-17T05:58:51.337Z,1.40
2023-01-17T06:01:17.834Z,2.33
2023-01-17T06:03:44.391Z,2.25
2023-01-17T06:06:11.275Z,1.98
2023-01-17T06:08:37.715Z,2.28
2023-01-17T06:11:04.306Z,2.22
2023-01-17T06:13:33.503Z,2.65
2023-01-17T06:16:04.142Z,3.92
2023-01-17T06:18:31.634Z,3.72
2023-01-17T06:20:58.364Z,3.63
2023-01-17T06:23:25.638Z,3.50
2023-01-17T06:25:52.254Z,4.22
2023-01-17T06:28:21.334Z,3.72
2023-01-17T06:30:48.427Z,3.88
2023-01-17T06:38:15.241Z,1.85
2023-01-17T06:40:42.463Z,2.78
2023-01-17T06:43:09.134Z,2.08
2023-01-17T06:45:36.376Z,0.75
2023-01-17T06:50:33.502Z,1.42
2023-01-17T06:53:02.752Z,0.98
2023-01-17T06:55:30.884Z,0.60
2023-01-17T06:57:59.574Z,0.60
2023-01-17T07:00:27.418Z,1.83
2023-01-17T07:02:54.594Z,2.65
2023-01-17T07:05:21.575Z,1.35
2023-01-17T07:07:48.372Z,1.55
2023-01-17T07:10:16.168Z,0.77
2023-01-17T07:12:42.787Z,1.35
2023-01-17T07:15:10.118Z,2.65
2023-01-17T07:17:36.699Z,1.23
2023-01-17T07:20:03.533Z,5.25
2023-01-17T07:22:30.290Z,4.20
2023-01-17T07:24:58.578Z,3.10
2023-01-17T07:27:29.764Z,1.85
2023-01-17T07:29:57.273Z,1.30
2023-01-17T07:32:26.838Z,3.03
2023-01-17T07:34:54.802Z,2.40
2023-01-17T07:37:21.988Z,1.80
2023-01-17T07:42:16.144Z,4.80
2023-01-17T07:44:44.003Z,2.33
2023-01-17T07:47:11.394Z,4.13
2023-01-17T07:49:37.934Z,3.40
2023-01-17T07:52:07.306Z,2.17
2023-01-17T07:54:33.871Z,4.25
2023-01-17T07:57:01.298Z,2.83
2023-01-17T07:59:27.858Z,3.50
2023-01-17T08:01:54.753Z,3.60
2023-01-17T08:04:21.473Z,2.78
2023-01-17T08:06:50.712Z,4.85
2023-01-17T08:09:17.247Z,4.07
2023-01-17T08:11:43.713Z,4.25
2023-01-17T08:14:10.532Z,2.97
2023-01-17T08:16:38.045Z,4.85
2023-01-17T08:19:04.698Z,7.90
2023-01-17T08:21:31.327Z,8.25
2023-01-17T08:23:57.837Z,4.00
2023-01-17T08:26:25.466Z,11.32
2023-01-17T08:29:02.832Z,5.70
2023-01-17T08:31:34.991Z,6.65
2023-01-17T08:34:01.574Z,4.07
2023-01-17T08:36:28.790Z,7.30
2023-01-17T08:38:55.616Z,4.60
2023-01-17T08:41:23.674Z,4.00
2023-01-17T08:43:52.014Z,3.97
2023-01-17T08:46:19.500Z,3.17
2023-01-17T08:48:46.483Z,4.55
2023-01-17T08:51:13.745Z,3.33
2023-01-17T08:53:40.748Z,7.45
2023-01-17T08:58:35.075Z,1.90
2023-01-17T09:01:03.552Z,3.35
2023-01-17T09:03:31.661Z,5.63
2023-01-17T09:06:17.627Z,4.75
2023-01-17T09:08:47.791Z,2.67
2023-01-17T09:11:16.805Z,1.40
2023-01-17T09:13:46.308Z,5.80
2023-01-17T09:16:13.055Z,5.82
2023-01-17T09:18:39.816Z,5.03
2023-01-17T09:21:15.112Z,3.30
2023-01-17T09:23:41.966Z,3.45
2023-01-17T09:26:22.571Z,3.50
2023-01-17T09:28:49.200Z,3.08
2023-01-17T09:31:17.607Z,3.35
2023-01-17T09:33:44.574Z,2.15
2023-01-17T09:36:11.398Z,6.35
2023-01-17T09:38:38.637Z,3.30
2023-01-17T09:41:21.988Z,5.32
2023-01-17T09:43:56.795Z,7.03
2023-01-17T09:46:27.904Z,4.03
2023-01-17T09:49:14.604Z,5.07
2023-01-17T09:54:21.913Z,4.32
2023-01-17T09:57:34.828Z,6.57
2023-01-17T10:00:16.740Z,2.85
2023-01-17T10:03:08.416Z,2.97
2023-01-17T10:05:48.683Z,7.10
2023-01-17T10:08:55.411Z,2.55
2023-01-17T10:11:44.650Z,2.83
2023-01-17T10:14:30.140Z,3.67
2023-01-17T10:17:09.124Z,4.00
2023-01-17T10:19:57.370Z,3.80
2023-01-17T10:22:52.145Z,1.85
2023-01-17T10:25:33.633Z,5.13
2023-01-17T10:28:12.475Z,3.17
2023-01-17T10:31:00.942Z,5.57
2023-01-17T10:33:35.982Z,3.25
2023-01-17T10:36:11.414Z,3.13
2023-01-17T10:38:38.822Z,2.80
2023-01-17T10:41:15.965Z,2.33
2023-01-17T10:43:51.713Z,1.75
2023-01-17T10:46:38.758Z,2.38
2023-01-17T10:49:05.596Z,3.78
2023-01-17T10:51:49.759Z,3.28
2023-01-17T10:54:36.021Z,9.25
2023-01-17T10:57:02.851Z,2.45
2023-01-17T10:59:34.374Z,5.45
2023-01-17T11:02:07.332Z,3.83
2023-01-17T11:04:36.538Z,2.80
2023-01-17T11:07:11.235Z,4.00
2023-01-17T11:09:49.848Z,1.65
2023-01-17T11:12:20.985Z,3.38
2023-01-17T11:14:58.031Z,2.50
2023-01-17T11:19:51.602Z,2.08
2023-01-17T11:22:18.700Z,2.15
2023-01-17T11:27:31.858Z,1.77
2023-01-17T11:30:18.283Z,4.50
2023-01-17T11:32:57.222Z,3.05
2023-01-17T11:35:27.772Z,3.88
2023-01-17T11:38:20.000Z,4.03
2023-01-17T11:40:48.402Z,1.75
2023-01-17T11:43:26.649Z,1.85
2023-01-17T11:46:04.443Z,3.50
2023-01-17T11:48:36.873Z,4.88
2023-01-17T11:51:06.850Z,2.30
2023-01-17T11:53:38.198Z,3.92
2023-01-17T11:56:05.911Z,3.47
2023-01-17T11:58:38.489Z,3.20
2023-01-17T12:01:23.819Z,1.45
2023-01-17T12:04:04.773Z,1.20
2023-01-17T12:06:56.774Z,2.13
2023-01-17T12:09:27.442Z,5.20
2023-01-17T12:12:24.985Z,1.60
2023-01-17T12:15:14.854Z,3.35
2023-01-17T12:17:55.081Z,2.88
2023-01-17T12:20:51.962Z,3.55
2023-01-17T12:23:49.689Z,3.75
2023-01-17T12:26:29.127Z,2.55
2023-01-17T12:29:22.943Z,1.95
2023-01-17T12:32:26.751Z,2.63
2023-01-17T12:35:00.703Z,1.27
2023-01-17T12:37:36.520Z,2.28
2023-01-17T12:40:15.498Z,1.98
2023-01-17T12:42:48.865Z,1.50
2023-01-17T12:45:26.759Z,1.63
2023-01-17T12:48:00.663Z,3.42
2023-01-17T12:50:31.643Z,3.08
2023-01-17T12:53:16.516Z,2.05
2023-01-17T12:55:58.504Z,1.10
2023-01-17T12:58:30.997Z,1.23
2023-01-17T13:01:20.209Z,3.25
2023-01-17T13:04:18.281Z,2.00
2023-01-17T13:06:47.125Z,3.83
2023-01-17T13:09:19.763Z,3.00
2023-01-17T13:11:51.724Z,1.80
2023-01-17T13:14:18.453Z,1.40
2023-01-17T13:16:54.704Z,2.35
2023-01-17T13:19:36.625Z,4.68
2023-01-17T13:22:07.249Z,2.92
2023-01-17T13:24:53.515Z,1.70
2023-01-17T13:27:43.408Z,3.28
2023-01-17T13:30:45.835Z,1.05
2023-01-17T13:33:44.855Z,2.85
2023-01-17T13:36:38.891Z,4.07
2023-01-17T13:39:24.118Z,2.28
2023-01-17T13:41:57.099Z,2.90
2023-01-17T13:44:27.198Z,2.92
2023-01-17T13:46:55.200Z,3.50
2023-01-17T13:49:35.372Z,1.58
2023-01-17T13:52:12.353Z,1.35
2023-01-17T13:54:50.826Z,2.25
2023-01-17T13:57:29.359Z,2.30
2023-01-17T13:59:58.360Z,0.85
2023-01-17T14:02:36.379Z,1.42
2023-01-17T14:05:18.048Z,2.40
2023-01-17T14:07:57.137Z,1.67
2023-01-17T14:10:41.392Z,1.83
2023-01-17T14:13:41.445Z,0.80
2023-01-17T14:16:28.876Z,3.03
2023-01-17T14:18:58.051Z,0.68
2023-01-17T14:21:35.800Z,0.80
2023-01-17T14:24:16.281Z,1.70
2023-01-17T14:26:59.512Z,0.80
2023-01-17T14:29:56.788Z,1.10
2023-01-17T14:32:36.360Z,1.00
2023-01-17T14:35:04.810Z,1.17
2023-01-17T14:37:44.616Z,1.25
2023-01-17T14:40:30.769Z,0.60
2023-01-17T14:43:15.913Z,11.43
2023-01-17T14:45:43.514Z,3.90
2023-01-17T14:48:22.520Z,2.55
2023-01-17T14:50:54.547Z,1.60
2023-01-17T14:53:22.807Z,1.55
2023-01-17T14:55:49.782Z,2.83
2023-01-17T14:58:26.897Z,3.70
2023-01-17T15:00:58.555Z,6.15
2023-01-17T15:03:25.611Z,5.47
2023-01-17T15:08:25.507Z,4.20
2023-01-17T15:11:02.997Z,4.88
2023-01-17T15:13:43.871Z,3.25
2023-01-17T15:16:41.188Z,2.22
2023-01-17T15:19:13.752Z,3.20
2023-01-17T15:21:43.254Z,2.88
2023-01-17T15:24:19.675Z,1.92
2023-01-17T15:26:46.797Z,2.22
2023-01-17T15:31:57.277Z,1.48
2023-01-17T15:34:31.026Z,2.25
2023-01-17T15:37:04.888Z,1.05
2023-01-17T15:39:35.684Z,2.97
2023-01-17T15:42:06.668Z,4.28
2023-01-17T15:44:48.374Z,3.20
2023-01-17T15:47:48.945Z,1.92
2023-01-17T15:50:22.302Z,1.95
2023-01-17T15:52:50.650Z,3.42
2023-01-17T15:55:38.710Z,3.30
2023-01-17T15:58:22.867Z,2.83
2023-01-17T16:00:49.750Z,2.15
2023-01-17T16:03:22.596Z,3.33
2023-01-17T16:05:50.737Z,4.40
2023-01-17T16:08:24.636Z,2.25
2023-01-17T16:10:57.966Z,3.17
2023-01-17T16:13:25.157Z,1.67
2023-01-17T16:18:20.240Z,2.42
2023-01-17T16:20:53.924Z,2.90
2023-01-17T16:23:20.903Z,2.10
2023-01-17T16:25:47.976Z,1.35
2023-01-17T16:28:17.686Z,1.67
2023-01-17T16:30:44.748Z,1.88
2023-01-17T16:35:40.091Z,2.45
2023-01-17T16:38:11.479Z,3.15
2023-01-17T16:40:44.376Z,3.47
2023-01-17T16:43:12.147Z,1.92
2023-01-17T16:45:47.041Z,3.13
2023-01-17T16:48:14.619Z,2.63
2023-01-17T16:50:47.895Z,1.98
2023-01-17T16:53:15.361Z,4.45
2023-01-17T16:55:43.991Z,2.40
2023-01-17T16:58:12.994Z,3.08
2023-01-17T17:00:40.365Z,4.43
2023-01-17T17:03:07.231Z,4.00
2023-01-17T17:05:34.786Z,5.30
2023-01-17T17:08:01.530Z,3.92
2023-01-17T17:10:27.969Z,2.92
2023-01-17T17:12:55.318Z,2.20
2023-01-17T17:15:21.794Z,3.33
2023-01-17T17:17:48.554Z,6.07
2023-01-17T17:20:16.115Z,3.38
2023-01-17T17:22:44.090Z,2.40
2023-01-17T17:25:15.828Z,3.97
2023-01-17T17:27:42.814Z,5.35
2023-01-17T17:30:10.728Z,2.78
2023-01-17T17:32:37.345Z,3.45
2023-01-17T17:35:04.362Z,3.72
2023-01-17T17:39:58.611Z,4.97
2023-01-17T17:42:25.653Z,2.88
2023-01-17T17:44:52.264Z,3.88
2023-01-17T17:47:18.847Z,6.32
2023-01-17T17:49:45.496Z,8.45
2023-01-17T17:52:12.140Z,6.38
2023-01-17T17:54:38.584Z,6.03
2023-01-17T17:57:07.807Z,5.07
2023-01-17T17:59:34.812Z,3.70
2023-01-17T18:06:58.023Z,6.32
2023-01-17T18:09:24.872Z,6.43
2023-01-17T18:11:51.478Z,6.40
2023-01-17T18:14:20.915Z,7.50
2023-01-17T18:16:48.570Z,7.13
2023-01-17T18:19:18.810Z,6.90
2023-01-17T18:21:45.715Z,6.63
2023-01-17T18:24:14.819Z,8.40
2023-01-17T18:26:50.126Z,7.10
2023-01-17T18:29:19.548Z,7.22
2023-01-17T18:31:47.396Z,6.63
2023-01-17T18:34:17.694Z,7.03
2023-01-17T18:36:44.912Z,8.50
2023-01-17T18:39:14.765Z,10.98
2023-01-17T18:41:41.367Z,8.00
2023-01-17T18:44:08.556Z,5.93
2023-01-17T18:46:36.192Z,7.28
2023-01-17T18:49:06.221Z,6.03
2023-01-17T18:51:34.692Z,6.32
2023-01-17T18:54:05.890Z,10.48
2023-01-17T18:56:36.465Z,9.10
2023-01-17T18:59:05.700Z,6.05
2023-01-17T19:01:35.468Z,8.18
2023-01-17T19:04:04.444Z,8.65
2023-01-17T19:06:41.620Z,10.93
2023-01-17T19:09:10.579Z,6.40
2023-01-17T19:11:38.022Z,10.43
2023-01-17T19:14:06.104Z,10.00
2023-01-17T19:16:35.794Z,9.68
2023-01-17T19:19:15.160Z,12.02
2023-01-17T19:21:42.734Z,7.57
2023-01-17T19:24:10.816Z,8.23
2023-01-17T19:26:37.364Z,12.40
2023-01-17T19:29:05.134Z,9.40
2023-01-17T19:31:35.990Z,10.80
2023-01-17T19:34:02.706Z,10.15
2023-01-17T19:36:33.894Z,6.63
2023-01-17T19:39:05.677Z,12.10
2023-01-17T19:41:35.483Z,11.63
2023-01-17T19:44:05.125Z,8.52
2023-01-17T19:46:32.389Z,16.60
2023-01-17T19:48:59.675Z,14.75
2023-01-17T19:51:26.866Z,8.88
2023-01-17T19:56:25.499Z,6.72
2023-01-17T19:58:52.532Z,7.40
2023-01-17T20:03:51.269Z,8.63
2023-01-17T20:06:20.788Z,8.52
2023-01-17T20:08:47.392Z,11.98
2023-01-17T20:11:19.944Z,10.50
2023-01-17T20:13:47.859Z,12.70
2023-01-17T20:16:16.852Z,10.23
2023-01-17T20:18:43.769Z,9.10
2023-01-17T20:21:13.577Z,8.57
2023-01-17T20:23:46.805Z,12.13
2023-01-17T20:26:46.513Z,11.48
2023-01-17T20:29:15.495Z,7.40
2023-01-17T20:31:43.476Z,10.77
2023-01-17T20:34:12.756Z,8.38
2023-01-17T20:36:41.652Z,8.65
2023-01-17T20:39:08.780Z,9.80
2023-01-17T20:41:39.788Z,11.60
2023-01-17T20:44:07.778Z,9.00
2023-01-17T20:46:40.531Z,9.45
2023-01-17T20:49:13.649Z,9.43
2023-01-17T20:51:40.649Z,12.00
2023-01-17T20:54:12.878Z,12.68
2023-01-17T20:56:40.299Z,10.15
2023-01-17T20:59:09.695Z,12.27
2023-01-17T21:01:37.088Z,13.32
2023-01-17T21:04:04.702Z,9.65
2023-01-17T21:06:31.251Z,12.52
2023-01-17T21:09:00.908Z,12.93
2023-01-17T21:11:27.860Z,11.07
2023-01-17T21:13:57.363Z,10.02
2023-01-17T21:16:24.122Z,8.88
2023-01-17T21:18:51.821Z,9.32
2023-01-17T21:21:21.995Z,10.70
2023-01-17T21:23:50.161Z,10.10
2023-01-17T21:26:18.352Z,7.57
2023-01-17T21:28:47.488Z,10.02
2023-01-17T21:31:24.666Z,10.38
2023-01-17T21:33:52.549Z,10.82
2023-01-17T21:36:20.667Z,9.60
2023-01-17T21:38:52.133Z,9.50
2023-01-17T21:41:20.663Z,6.97
2023-01-17T21:43:47.886Z,9.70
2023-01-17T21:46:14.677Z,8.20
2023-01-17T21:48:41.297Z,7.70
2023-01-17T21:51:08.768Z,7.38
2023-01-17T21:53:36.807Z,7.10
2023-01-17T21:56:23.797Z,10.13
2023-01-17T21:58:54.520Z,7.78
2023-01-17T22:01:23.762Z,9.82
2023-01-17T22:03:51.698Z,7.68
2023-01-17T22:06:19.821Z,8.57
2023-01-17T22:08:46.554Z,7.05
2023-01-17T22:11:15.882Z,11.05
2023-01-17T22:13:43.682Z,8.73
2023-01-17T22:16:13.598Z,9.13
2023-01-17T22:18:42.710Z,7.88
2023-01-17T22:21:13.673Z,7.75
2023-01-17T22:23:45.491Z,8.13
2023-01-17T22:26:11.964Z,9.55
2023-01-17T22:28:39.585Z,13.07
2023-01-17T22:31:08.835Z,9.77
2023-01-17T22:33:36.482Z,8.70
2023-01-17T22:36:03.228Z,7.68
2023-01-17T22:38:30.355Z,10.95
2023-01-17T22:43:41.545Z,6.88
2023-01-17T22:46:10.997Z,7.20
2023-01-17T22:48:38.750Z,5.68
2023-01-17T22:51:07.595Z,6.53
2023-01-17T22:53:34.763Z,7.20
2023-01-17T22:58:32.449Z,7.65
2023-01-17T23:03:36.564Z,7.03
2023-01-17T23:08:40.757Z,7.38
2023-01-17T23:11:39.152Z,7.00
2023-01-17T23:14:09.017Z,10.02
2023-01-17T23:16:55.548Z,7.25
2023-01-17T23:19:22.441Z,13.52
2023-01-17T23:22:14.995Z,12.70
2023-01-17T23:24:48.870Z,10.95
2023-01-17T23:27:38.716Z,10.02
2023-01-17T23:30:11.095Z,12.25
2023-01-17T23:32:39.571Z,10.52
2023-01-17T23:35:06.923Z,11.70
2023-01-17T23:37:52.135Z,12.43
2023-01-17T23:40:19.264Z,10.40
2023-01-17T23:45:35.009Z,12.15
2023-01-17T23:48:01.932Z,11.75
2023-01-17T23:50:30.792Z,11.98
2023-01-17T23:52:57.715Z,14.38
2023-01-17T23:55:27.372Z,13.55
2023-01-17T23:57:54.858Z,12.88
